sensor_id;sensor_type;location;lat;lon;timestamp;pressure;altitude;pressure_sealevel;temperature;humidity
5952;BME280;3001;42.622;23.194;2023-06-14T00:00:33;91082.59;;;20.62;98.72
5952;BME280;3001;42.622;23.194;2023-06-14T00:03:01;91078.88;;;20.66;98.72
5952;BME280;3001;42.622;23.194;2023-06-14T00:05:29;91069.13;;;20.74;98.13
5952;BME280;3001;42.622;23.194;2023-06-14T00:07:59;91080.25;;;20.53;99.23
5952;BME280;3001;42.622;23.194;2023-06-14T00:10:27;91070.09;;;20.55;99.49
5952;BME280;3001;42.622;23.194;2023-06-14T00:12:56;91074.63;;;20.58;98.70
5952;BME280;3001;42.622;23.194;2023-06-14T00:15:25;91066.06;;;20.68;97.93
5952;BME280;3001;42.622;23.194;2023-06-14T00:17:51;91067.13;;;20.60;98.20
5952;BME280;3001;42.622;23.194;2023-06-14T00:20:18;91069.06;;;20.67;97.76
5952;BME280;3001;42.622;23.194;2023-06-14T00:22:45;91061.63;;;20.83;96.59
5952;BME280;3001;42.622;23.194;2023-06-14T00:25:11;91060.44;;;20.73;97.07
5952;BME280;3001;42.622;23.194;2023-06-14T00:27:39;91068.88;;;20.93;96.20
5952;BME280;3001;42.622;23.194;2023-06-14T00:30:07;91064.34;;;20.90;95.62
5952;BME280;3001;42.622;23.194;2023-06-14T00:32:34;91057.56;;;20.92;95.79
5952;BME280;3001;42.622;23.194;2023-06-14T00:35:01;91065.16;;;20.97;95.56
5952;BME280;3001;42.622;23.194;2023-06-14T00:37:27;91064.59;;;20.74;96.93
5952;BME280;3001;42.622;23.194;2023-06-14T00:39:54;91060.31;;;21.06;95.89
5952;BME280;3001;42.622;23.194;2023-06-14T00:42:24;91056.66;;;20.74;97.16
5952;BME280;3001;42.622;23.194;2023-06-14T00:44:53;91054.63;;;20.54;97.96
5952;BME280;3001;42.622;23.194;2023-06-14T00:47:19;91056.00;;;20.34;98.98
5952;BME280;3001;42.622;23.194;2023-06-14T00:49:47;91045.84;;;20.39;98.50
5952;BME280;3001;42.622;23.194;2023-06-14T00:52:15;91047.56;;;20.18;99.65
5952;BME280;3001;42.622;23.194;2023-06-14T00:54:42;91053.88;;;20.10;100.00
5952;BME280;3001;42.622;23.194;2023-06-14T00:57:10;91050.75;;;20.01;99.82
5952;BME280;3001;42.622;23.194;2023-06-14T00:59:41;91053.69;;;20.32;99.43
5952;BME280;3001;42.622;23.194;2023-06-14T01:02:11;91046.31;;;20.52;98.01
5952;BME280;3001;42.622;23.194;2023-06-14T01:04:39;91056.63;;;20.24;98.38
5952;BME280;3001;42.622;23.194;2023-06-14T01:07:10;91053.78;;;20.43;98.21
5952;BME280;3001;42.622;23.194;2023-06-14T01:09:48;91047.72;;;20.39;98.96
5952;BME280;3001;42.622;23.194;2023-06-14T01:12:23;91040.91;;;20.34;98.26
5952;BME280;3001;42.622;23.194;2023-06-14T01:14:52;91046.22;;;20.38;98.29
5952;BME280;3001;42.622;23.194;2023-06-14T01:17:22;91044.66;;;20.33;98.65
5952;BME280;3001;42.622;23.194;2023-06-14T01:19:51;91038.72;;;20.47;97.95
5952;BME280;3001;42.622;23.194;2023-06-14T01:22:24;91036.13;;;20.50;97.38
5952;BME280;3001;42.622;23.194;2023-06-14T01:24:52;91039.28;;;20.23;98.36
5952;BME280;3001;42.622;23.194;2023-06-14T01:27:21;91031.53;;;20.00;99.29
5952;BME280;3001;42.622;23.194;2023-06-14T01:29:50;91032.06;;;20.13;98.91
5952;BME280;3001;42.622;23.194;2023-06-14T01:32:17;91030.72;;;19.93;98.55
5952;BME280;3001;42.622;23.194;2023-06-14T01:34:44;91033.47;;;20.03;97.95
5952;BME280;3001;42.622;23.194;2023-06-14T01:37:12;91035.25;;;19.96;97.69
5952;BME280;3001;42.622;23.194;2023-06-14T01:39:39;91034.13;;;19.60;98.64
5952;BME280;3001;42.622;23.194;2023-06-14T01:42:08;91027.78;;;19.65;98.19
5952;BME280;3001;42.622;23.194;2023-06-14T01:44:37;91037.31;;;19.76;96.83
5952;BME280;3001;42.622;23.194;2023-06-14T01:47:04;91030.97;;;19.48;97.96
5952;BME280;3001;42.622;23.194;2023-06-14T01:49:33;91035.81;;;19.42;98.18
5952;BME280;3001;42.622;23.194;2023-06-14T01:52:00;91039.97;;;19.14;99.53
5952;BME280;3001;42.622;23.194;2023-06-14T01:54:26;91045.16;;;19.36;99.09
5952;BME280;3001;42.622;23.194;2023-06-14T01:56:54;91046.03;;;19.47;98.78
5952;BME280;3001;42.622;23.194;2023-06-14T01:59:23;91046.66;;;19.37;99.61
5952;BME280;3001;42.622;23.194;2023-06-14T02:01:49;91055.66;;;19.33;100.00
5952;BME280;3001;42.622;23.194;2023-06-14T02:04:16;91052.75;;;18.86;100.00
5952;BME280;3001;42.622;23.194;2023-06-14T02:06:43;91051.22;;;18.59;100.00
5952;BME280;3001;42.622;23.194;2023-06-14T02:09:10;91051.22;;;18.85;100.00
5952;BME280;3001;42.622;23.194;2023-06-14T02:11:36;91050.69;;;18.73;100.00
5952;BME280;3001;42.622;23.194;2023-06-14T02:14:03;91054.94;;;18.81;100.00
5952;BME280;3001;42.622;23.194;2023-06-14T02:16:31;91057.44;;;19.26;100.00
5952;BME280;3001;42.622;23.194;2023-06-14T02:19:01;91071.47;;;19.33;100.00
5952;BME280;3001;42.622;23.194;2023-06-14T02:21:27;91067.59;;;19.24;100.00
5952;BME280;3001;42.622;23.194;2023-06-14T02:23:54;91064.66;;;19.06;100.00
5952;BME280;3001;42.622;23.194;2023-06-14T02:26:21;91071.09;;;19.34;100.00
5952;BME280;3001;42.622;23.194;2023-06-14T02:28:48;91070.81;;;19.43;100.00
5952;BME280;3001;42.622;23.194;2023-06-14T02:31:15;91073.19;;;19.51;100.00
5952;BME280;3001;42.622;23.194;2023-06-14T02:33:44;91070.50;;;19.19;100.00
5952;BME280;3001;42.622;23.194;2023-06-14T02:36:10;91067.66;;;19.30;100.00
5952;BME280;3001;42.622;23.194;2023-06-14T02:38:37;91065.44;;;19.07;100.00
5952;BME280;3001;42.622;23.194;2023-06-14T02:41:03;91070.88;;;19.17;100.00
5952;BME280;3001;42.622;23.194;2023-06-14T02:43:31;91071.69;;;19.21;100.00
5952;BME280;3001;42.622;23.194;2023-06-14T02:45:57;91068.31;;;19.24;100.00
5952;BME280;3001;42.622;23.194;2023-06-14T02:48:24;91062.31;;;19.24;100.00
5952;BME280;3001;42.622;23.194;2023-06-14T02:50:52;91058.97;;;19.27;100.00
5952;BME280;3001;42.622;23.194;2023-06-14T02:53:19;91064.22;;;19.27;100.00
5952;BME280;3001;42.622;23.194;2023-06-14T02:55:45;91064.13;;;19.20;100.00
5952;BME280;3001;42.622;23.194;2023-06-14T02:58:13;91057.84;;;19.27;100.00
5952;BME280;3001;42.622;23.194;2023-06-14T03:00:41;91058.00;;;19.12;100.00
5952;BME280;3001;42.622;23.194;2023-06-14T03:03:08;91068.47;;;19.09;100.00
5952;BME280;3001;42.622;23.194;2023-06-14T03:05:40;91063.28;;;19.16;99.73
5952;BME280;3001;42.622;23.194;2023-06-14T03:08:12;91059.38;;;19.03;99.19
5952;BME280;3001;42.622;23.194;2023-06-14T03:10:42;91067.88;;;18.93;99.68
5952;BME280;3001;42.622;23.194;2023-06-14T03:13:09;91076.44;;;19.12;98.54
5952;BME280;3001;42.622;23.194;2023-06-14T03:15:36;91080.19;;;19.11;98.52
5952;BME280;3001;42.622;23.194;2023-06-14T03:18:03;91084.72;;;19.14;98.72
5952;BME280;3001;42.622;23.194;2023-06-14T03:20:30;91086.13;;;19.08;98.76
5952;BME280;3001;42.622;23.194;2023-06-14T03:22:58;91093.31;;;18.82;100.00
5952;BME280;3001;42.622;23.194;2023-06-14T03:25:26;91099.75;;;19.14;98.04
5952;BME280;3001;42.622;23.194;2023-06-14T03:27:54;91096.53;;;18.98;98.61
5952;BME280;3001;42.622;23.194;2023-06-14T03:30:21;91086.13;;;19.08;98.50
5952;BME280;3001;42.622;23.194;2023-06-14T03:32:48;91097.13;;;19.14;98.90
5952;BME280;3001;42.622;23.194;2023-06-14T03:35:16;91104.53;;;19.05;99.29
5952;BME280;3001;42.622;23.194;2023-06-14T03:37:43;91098.44;;;18.75;100.00
5952;BME280;3001;42.622;23.194;2023-06-14T03:40:11;91095.97;;;18.85;100.00
5952;BME280;3001;42.622;23.194;2023-06-14T03:42:40;91098.16;;;18.80;100.00
5952;BME280;3001;42.622;23.194;2023-06-14T03:45:07;91089.41;;;18.98;100.00
5952;BME280;3001;42.622;23.194;2023-06-14T03:47:34;91093.41;;;18.89;100.00
5952;BME280;3001;42.622;23.194;2023-06-14T03:50:01;91093.19;;;19.01;100.00
5952;BME280;3001;42.622;23.194;2023-06-14T03:52:28;91092.78;;;18.99;100.00
5952;BME280;3001;42.622;23.194;2023-06-14T03:54:55;91088.88;;;19.15;100.00
5952;BME280;3001;42.622;23.194;2023-06-14T03:57:23;91099.19;;;19.24;100.00
5952;BME280;3001;42.622;23.194;2023-06-14T03:59:51;91095.03;;;19.23;100.00
5952;BME280;3001;42.622;23.194;2023-06-14T04:02:18;91101.50;;;19.28;100.00
5952;BME280;3001;42.622;23.194;2023-06-14T04:04:45;91099.81;;;19.43;100.00
5952;BME280;3001;42.622;23.194;2023-06-14T04:07:11;91101.97;;;19.37;100.00
5952;BME280;3001;42.622;23.194;2023-06-14T04:09:38;91100.91;;;19.42;100.00
5952;BME280;3001;42.622;23.194;2023-06-14T04:12:07;91105.91;;;19.80;100.00
5952;BME280;3001;42.622;23.194;2023-06-14T04:14:34;91103.44;;;19.97;100.00
5952;BME280;3001;42.622;23.194;2023-06-14T04:17:02;91103.44;;;19.97;100.00
5952;BME280;3001;42.622;23.194;2023-06-14T04:19:29;91100.94;;;20.04;100.00
5952;BME280;3001;42.622;23.194;2023-06-14T04:21:56;91097.75;;;20.28;98.91
5952;BME280;3001;42.622;23.194;2023-06-14T04:24:24;91101.25;;;20.39;98.10
5952;BME280;3001;42.622;23.194;2023-06-14T04:26:58;91104.16;;;20.27;99.07
5952;BME280;3001;42.622;23.194;2023-06-14T04:29:26;91104.16;;;20.27;99.63
5952;BME280;3001;42.622;23.194;2023-06-14T04:31:55;91101.09;;;20.22;99.46
5952;BME280;3001;42.622;23.194;2023-06-14T04:34:25;91105.03;;;20.42;98.78
5952;BME280;3001;42.622;23.194;2023-06-14T04:36:55;91104.19;;;20.74;97.74
5952;BME280;3001;42.622;23.194;2023-06-14T04:39:23;91102.75;;;20.40;98.63
5952;BME280;3001;42.622;23.194;2023-06-14T04:41:51;91094.84;;;20.40;99.18
5952;BME280;3001;42.622;23.194;2023-06-14T04:44:22;91100.75;;;20.27;100.00
5952;BME280;3001;42.622;23.194;2023-06-14T04:46:55;91104.84;;;20.21;100.00
5952;BME280;3001;42.622;23.194;2023-06-14T04:49:22;91097.28;;;20.19;100.00
5952;BME280;3001;42.622;23.194;2023-06-14T04:51:50;91101.53;;;19.94;100.00
5952;BME280;3001;42.622;23.194;2023-06-14T04:54:22;91105.38;;;20.37;100.00
5952;BME280;3001;42.622;23.194;2023-06-14T04:56:50;91109.06;;;20.29;100.00
5952;BME280;3001;42.622;23.194;2023-06-14T04:59:18;91113.94;;;20.23;100.00
5952;BME280;3001;42.622;23.194;2023-06-14T05:01:45;91121.50;;;19.95;100.00
5952;BME280;3001;42.622;23.194;2023-06-14T05:04:13;91122.28;;;19.99;100.00
5952;BME280;3001;42.622;23.194;2023-06-14T05:06:40;91124.25;;;20.02;100.00
5952;BME280;3001;42.622;23.194;2023-06-14T05:09:08;91131.78;;;20.04;100.00
5952;BME280;3001;42.622;23.194;2023-06-14T05:11:35;91134.56;;;19.85;100.00
5952;BME280;3001;42.622;23.194;2023-06-14T05:14:01;91131.72;;;20.00;100.00
5952;BME280;3001;42.622;23.194;2023-06-14T05:16:28;91135.81;;;20.27;100.00
5952;BME280;3001;42.622;23.194;2023-06-14T05:18:55;91140.22;;;20.16;100.00
5952;BME280;3001;42.622;23.194;2023-06-14T05:21:22;91143.69;;;20.24;100.00
5952;BME280;3001;42.622;23.194;2023-06-14T05:23:48;91150.03;;;20.16;100.00
5952;BME280;3001;42.622;23.194;2023-06-14T05:26:17;91149.81;;;20.31;100.00
5952;BME280;3001;42.622;23.194;2023-06-14T05:28:44;91148.81;;;20.46;100.00
5952;BME280;3001;42.622;23.194;2023-06-14T05:31:10;91148.72;;;20.79;98.62
5952;BME280;3001;42.622;23.194;2023-06-14T05:33:37;91157.22;;;20.99;98.43
5952;BME280;3001;42.622;23.194;2023-06-14T05:36:04;91155.38;;;21.03;97.79
5952;BME280;3001;42.622;23.194;2023-06-14T05:38:31;91159.00;;;20.88;98.19
5952;BME280;3001;42.622;23.194;2023-06-14T05:40:57;91158.84;;;20.70;98.86
5952;BME280;3001;42.622;23.194;2023-06-14T05:43:26;91154.50;;;20.92;97.35
5952;BME280;3001;42.622;23.194;2023-06-14T05:45:52;91160.72;;;21.13;96.34
5952;BME280;3001;42.622;23.194;2023-06-14T05:48:19;91159.31;;;21.29;94.87
5952;BME280;3001;42.622;23.194;2023-06-14T05:50:46;91165.59;;;21.08;95.07
5952;BME280;3001;42.622;23.194;2023-06-14T05:53:13;91169.00;;;21.11;95.70
5952;BME280;3001;42.622;23.194;2023-06-14T05:55:40;91169.28;;;21.53;94.96
5952;BME280;3001;42.622;23.194;2023-06-14T05:58:06;91174.94;;;21.52;95.31
5952;BME280;3001;42.622;23.194;2023-06-14T06:00:34;91177.97;;;21.54;94.68
5952;BME280;3001;42.622;23.194;2023-06-14T06:03:01;91178.97;;;21.32;94.54
5952;BME280;3001;42.622;23.194;2023-06-14T06:05:28;91185.63;;;21.12;94.05
5952;BME280;3001;42.622;23.194;2023-06-14T06:07:54;91183.00;;;21.66;93.18
5952;BME280;3001;42.622;23.194;2023-06-14T06:10:21;91185.28;;;21.74;93.53
5952;BME280;3001;42.622;23.194;2023-06-14T06:12:48;91185.69;;;21.73;91.46
5952;BME280;3001;42.622;23.194;2023-06-14T06:15:17;91172.34;;;21.59;92.43
5952;BME280;3001;42.622;23.194;2023-06-14T06:17:45;91176.94;;;21.65;92.61
5952;BME280;3001;42.622;23.194;2023-06-14T06:20:12;91176.97;;;21.69;92.42
5952;BME280;3001;42.622;23.194;2023-06-14T06:22:39;91181.44;;;21.61;92.95
5952;BME280;3001;42.622;23.194;2023-06-14T06:25:07;91183.81;;;21.77;92.49
5952;BME280;3001;42.622;23.194;2023-06-14T06:27:34;91181.13;;;21.73;92.14
5952;BME280;3001;42.622;23.194;2023-06-14T06:30:01;91180.81;;;21.78;92.33
5952;BME280;3001;42.622;23.194;2023-06-14T06:32:28;91174.78;;;21.85;93.41
5952;BME280;3001;42.622;23.194;2023-06-14T06:34:56;91175.91;;;21.84;93.61
5952;BME280;3001;42.622;23.194;2023-06-14T06:37:25;91173.97;;;21.74;94.29
5952;BME280;3001;42.622;23.194;2023-06-14T06:39:51;91181.53;;;21.72;93.77
5952;BME280;3001;42.622;23.194;2023-06-14T06:42:18;91182.59;;;21.64;89.91
5952;BME280;3001;42.622;23.194;2023-06-14T06:44:45;91178.13;;;21.75;90.10
5952;BME280;3001;42.622;23.194;2023-06-14T06:47:12;91177.78;;;21.80;89.51
5952;BME280;3001;42.622;23.194;2023-06-14T06:49:38;91184.63;;;21.88;91.26
5952;BME280;3001;42.622;23.194;2023-06-14T06:52:07;91181.72;;;22.14;93.39
5952;BME280;3001;42.622;23.194;2023-06-14T06:54:34;91182.59;;;21.64;95.31
5952;BME280;3001;42.622;23.194;2023-06-14T06:57:01;91180.97;;;22.17;92.53
5952;BME280;3001;42.622;23.194;2023-06-14T06:59:28;91190.06;;;22.26;91.80
5952;BME280;3001;42.622;23.194;2023-06-14T07:01:55;91187.72;;;22.04;93.66
5952;BME280;3001;42.622;23.194;2023-06-14T07:04:22;91188.53;;;22.22;93.64
5952;BME280;3001;42.622;23.194;2023-06-14T07:06:49;91187.03;;;22.24;93.68
5952;BME280;3001;42.622;23.194;2023-06-14T07:09:17;91190.81;;;22.16;93.20
5952;BME280;3001;42.622;23.194;2023-06-14T07:11:46;91188.94;;;22.27;91.75
5952;BME280;3001;42.622;23.194;2023-06-14T07:14:13;91188.91;;;22.17;93.16
5952;BME280;3001;42.622;23.194;2023-06-14T07:16:40;91186.25;;;22.10;93.33
5952;BME280;3001;42.622;23.194;2023-06-14T07:19:08;91182.13;;;22.19;93.13
5952;BME280;3001;42.622;23.194;2023-06-14T07:21:35;91188.53;;;22.15;94.10
5952;BME280;3001;42.622;23.194;2023-06-14T07:24:04;91189.03;;;22.41;92.92
5952;BME280;3001;42.622;23.194;2023-06-14T07:26:33;91183.41;;;22.60;92.75
5952;BME280;3001;42.622;23.194;2023-06-14T07:28:59;91187.16;;;22.49;92.65
5952;BME280;3001;42.622;23.194;2023-06-14T07:31:26;91183.78;;;22.66;92.88
5952;BME280;3001;42.622;23.194;2023-06-14T07:33:53;91186.44;;;22.73;92.18
5952;BME280;3001;42.622;23.194;2023-06-14T07:36:19;91181.59;;;23.16;90.03
5952;BME280;3001;42.622;23.194;2023-06-14T07:38:46;91187.63;;;23.03;88.12
5952;BME280;3001;42.622;23.194;2023-06-14T07:41:13;91183.44;;;22.95;90.44
5952;BME280;3001;42.622;23.194;2023-06-14T07:43:41;91189.94;;;23.32;91.33
5952;BME280;3001;42.622;23.194;2023-06-14T07:46:07;91184.22;;;23.23;93.40
5952;BME280;3001;42.622;23.194;2023-06-14T07:48:34;91182.72;;;23.22;92.60
5952;BME280;3001;42.622;23.194;2023-06-14T07:51:01;91193.34;;;23.26;92.13
5952;BME280;3001;42.622;23.194;2023-06-14T07:53:28;91194.84;;;23.48;91.66
5952;BME280;3001;42.622;23.194;2023-06-14T07:55:56;91203.16;;;23.50;88.69
5952;BME280;3001;42.622;23.194;2023-06-14T07:58:22;91199.38;;;23.54;85.79
5952;BME280;3001;42.622;23.194;2023-06-14T08:00:50;91204.28;;;23.10;87.28
5952;BME280;3001;42.622;23.194;2023-06-14T08:03:17;91209.22;;;23.08;86.10
5952;BME280;3001;42.622;23.194;2023-06-14T08:05:44;91208.78;;;22.89;88.65
5952;BME280;3001;42.622;23.194;2023-06-14T08:08:11;91215.69;;;23.18;88.75
5952;BME280;3001;42.622;23.194;2023-06-14T08:10:38;91219.09;;;23.39;88.67
5952;BME280;3001;42.622;23.194;2023-06-14T08:13:04;91225.91;;;23.54;88.12
5952;BME280;3001;42.622;23.194;2023-06-14T08:15:31;91226.28;;;23.46;89.24
5952;BME280;3001;42.622;23.194;2023-06-14T08:18:00;91221.38;;;23.30;90.84
5952;BME280;3001;42.622;23.194;2023-06-14T08:20:27;91230.44;;;23.43;92.79
5952;BME280;3001;42.622;23.194;2023-06-14T08:22:55;91227.38;;;23.76;93.12
5952;BME280;3001;42.622;23.194;2023-06-14T08:25:22;91227.00;;;23.92;92.04
5952;BME280;3001;42.622;23.194;2023-06-14T08:27:49;91224.34;;;23.88;90.76
5952;BME280;3001;42.622;23.194;2023-06-14T08:30:15;91235.25;;;24.32;89.61
5952;BME280;3001;42.622;23.194;2023-06-14T08:32:43;91230.31;;;24.34;87.95
5952;BME280;3001;42.622;23.194;2023-06-14T08:35:11;91225.88;;;23.93;89.16
5952;BME280;3001;42.622;23.194;2023-06-14T08:37:38;91222.69;;;24.40;87.33
5952;BME280;3001;42.622;23.194;2023-06-14T08:40:17;91230.09;;;24.86;88.13
5952;BME280;3001;42.622;23.194;2023-06-14T08:42:44;91232.81;;;24.76;89.18
5952;BME280;3001;42.622;23.194;2023-06-14T08:45:12;91229.84;;;24.57;83.35
5952;BME280;3001;42.622;23.194;2023-06-14T08:47:39;91224.53;;;24.57;83.70
5952;BME280;3001;42.622;23.194;2023-06-14T08:50:07;91218.50;;;24.39;85.49
5952;BME280;3001;42.622;23.194;2023-06-14T08:52:38;91223.81;;;24.39;86.84
5952;BME280;3001;42.622;23.194;2023-06-14T08:55:11;91227.59;;;24.52;86.90
5952;BME280;3001;42.622;23.194;2023-06-14T08:57:38;91237.03;;;24.63;82.48
5952;BME280;3001;42.622;23.194;2023-06-14T09:00:07;91232.53;;;24.46;84.00
5952;BME280;3001;42.622;23.194;2023-06-14T09:02:37;91235.97;;;24.40;83.84
5952;BME280;3001;42.622;23.194;2023-06-14T09:05:09;91240.06;;;24.72;83.60
5952;BME280;3001;42.622;23.194;2023-06-14T09:07:37;91233.00;;;25.13;85.25
5952;BME280;3001;42.622;23.194;2023-06-14T09:10:07;91229.34;;;24.86;84.93
5952;BME280;3001;42.622;23.194;2023-06-14T09:12:34;91228.06;;;25.08;81.33
5952;BME280;3001;42.622;23.194;2023-06-14T09:15:01;91221.69;;;24.95;84.56
5952;BME280;3001;42.622;23.194;2023-06-14T09:17:32;91213.56;;;25.19;85.89
5952;BME280;3001;42.622;23.194;2023-06-14T09:19:59;91210.84;;;25.30;88.22
5952;BME280;3001;42.622;23.194;2023-06-14T09:22:26;91217.75;;;25.20;86.47
5952;BME280;3001;42.622;23.194;2023-06-14T09:24:57;91223.00;;;25.31;84.16
5952;BME280;3001;42.622;23.194;2023-06-14T09:27:25;91220.03;;;25.18;85.17
5952;BME280;3001;42.622;23.194;2023-06-14T09:29:52;91225.44;;;25.59;84.08
5952;BME280;3001;42.622;23.194;2023-06-14T09:32:19;91202.28;;;25.56;82.79
5952;BME280;3001;42.622;23.194;2023-06-14T09:34:46;91209.72;;;25.75;84.20
5952;BME280;3001;42.622;23.194;2023-06-14T09:37:26;91201.97;;;25.91;88.10
5952;BME280;3001;42.622;23.194;2023-06-14T09:39:53;91202.13;;;26.14;89.01
5952;BME280;3001;42.622;23.194;2023-06-14T09:42:22;91206.31;;;25.71;85.31
5952;BME280;3001;42.622;23.194;2023-06-14T09:44:51;91209.91;;;26.35;85.12
5952;BME280;3001;42.622;23.194;2023-06-14T09:47:18;91202.56;;;26.42;86.48
5952;BME280;3001;42.622;23.194;2023-06-14T09:49:45;91201.63;;;26.59;87.42
5952;BME280;3001;42.622;23.194;2023-06-14T09:52:14;91203.97;;;26.54;81.00
5952;BME280;3001;42.622;23.194;2023-06-14T09:54:43;91201.53;;;26.33;81.89
5952;BME280;3001;42.622;23.194;2023-06-14T09:57:12;91197.22;;;26.09;84.36
5952;BME280;3001;42.622;23.194;2023-06-14T09:59:42;91198.72;;;26.13;84.11
5952;BME280;3001;42.622;23.194;2023-06-14T10:02:13;91205.19;;;26.12;83.05
5952;BME280;3001;42.622;23.194;2023-06-14T10:04:46;91196.91;;;26.03;83.57
5952;BME280;3001;42.622;23.194;2023-06-14T10:07:19;91195.28;;;26.13;85.40
5952;BME280;3001;42.622;23.194;2023-06-14T10:09:46;91196.94;;;26.37;81.65
5952;BME280;3001;42.622;23.194;2023-06-14T10:12:16;91196.59;;;26.35;82.04
5952;BME280;3001;42.622;23.194;2023-06-14T10:14:48;91188.00;;;25.80;86.01
5952;BME280;3001;42.622;23.194;2023-06-14T10:17:22;91181.50;;;26.21;86.26
5952;BME280;3001;42.622;23.194;2023-06-14T10:19:55;91185.66;;;26.22;88.12
5952;BME280;3001;42.622;23.194;2023-06-14T10:22:26;91183.06;;;26.52;81.37
5952;BME280;3001;42.622;23.194;2023-06-14T10:24:55;91173.69;;;26.70;85.35
5952;BME280;3001;42.622;23.194;2023-06-14T10:27:22;91173.53;;;26.81;85.22
5952;BME280;3001;42.622;23.194;2023-06-14T10:30:06;91181.72;;;27.23;84.83
5952;BME280;3001;42.622;23.194;2023-06-14T10:32:33;91187.22;;;27.85;71.93
5952;BME280;3001;42.622;23.194;2023-06-14T10:35:01;91178.31;;;27.46;74.73
5952;BME280;3001;42.622;23.194;2023-06-14T10:37:30;91177.91;;;27.93;77.47
5952;BME280;3001;42.622;23.194;2023-06-14T10:39:57;91180.03;;;27.59;78.11
5952;BME280;3001;42.622;23.194;2023-06-14T10:42:29;91172.09;;;27.52;76.74
5952;BME280;3001;42.622;23.194;2023-06-14T10:44:58;91174.34;;;27.80;76.39
5952;BME280;3001;42.622;23.194;2023-06-14T10:47:30;91165.69;;;27.50;78.93
5952;BME280;3001;42.622;23.194;2023-06-14T10:50:03;91164.56;;;27.47;80.30
5952;BME280;3001;42.622;23.194;2023-06-14T10:52:33;91167.75;;;27.62;78.65
5952;BME280;3001;42.622;23.194;2023-06-14T10:55:05;91171.94;;;27.40;77.21
5952;BME280;3001;42.622;23.194;2023-06-14T10:57:35;91166.03;;;27.52;78.30
5952;BME280;3001;42.622;23.194;2023-06-14T11:00:03;91150.06;;;27.48;78.57
5952;BME280;3001;42.622;23.194;2023-06-14T11:05:54;91137.84;;;27.74;81.32
5952;BME280;3001;42.622;23.194;2023-06-14T11:11:37;91139.34;;;27.52;80.12
5952;BME280;3001;42.622;23.194;2023-06-14T11:14:08;91134.78;;;27.95;80.58
5952;BME280;3001;42.622;23.194;2023-06-14T11:16:34;91140.97;;;27.92;78.56
5952;BME280;3001;42.622;23.194;2023-06-14T11:19:02;91134.66;;;28.02;78.05
5952;BME280;3001;42.622;23.194;2023-06-14T11:21:29;91138.97;;;28.15;77.86
5952;BME280;3001;42.622;23.194;2023-06-14T11:23:58;91132.34;;;28.23;77.64
5952;BME280;3001;42.622;23.194;2023-06-14T11:26:25;91144.63;;;28.40;76.96
5952;BME280;3001;42.622;23.194;2023-06-14T11:28:55;91147.22;;;28.63;77.35
5952;BME280;3001;42.622;23.194;2023-06-14T11:31:23;91145.38;;;28.95;76.18
5952;BME280;3001;42.622;23.194;2023-06-14T11:33:50;91146.88;;;28.77;77.68
5952;BME280;3001;42.622;23.194;2023-06-14T11:36:18;91152.09;;;28.84;75.44
5952;BME280;3001;42.622;23.194;2023-06-14T11:38:45;91148.78;;;28.96;74.20
5952;BME280;3001;42.622;23.194;2023-06-14T11:41:11;91154.47;;;28.98;70.05
5952;BME280;3001;42.622;23.194;2023-06-14T11:43:39;91140.78;;;28.41;71.52
5952;BME280;3001;42.622;23.194;2023-06-14T11:46:12;91136.53;;;28.79;74.64
5952;BME280;3001;42.622;23.194;2023-06-14T11:48:41;91132.34;;;28.78;72.01
5952;BME280;3001;42.622;23.194;2023-06-14T11:51:08;91121.38;;;28.57;75.14
5952;BME280;3001;42.622;23.194;2023-06-14T11:53:38;91122.81;;;28.61;75.28
5952;BME280;3001;42.622;23.194;2023-06-14T11:56:05;91113.69;;;28.58;75.56
5952;BME280;3001;42.622;23.194;2023-06-14T11:58:32;91120.38;;;28.66;75.45
5952;BME280;3001;42.622;23.194;2023-06-14T12:00:58;91114.91;;;28.73;74.02
5952;BME280;3001;42.622;23.194;2023-06-14T12:03:26;91113.13;;;29.02;71.49
5952;BME280;3001;42.622;23.194;2023-06-14T12:06:04;91107.84;;;28.99;69.59
5952;BME280;3001;42.622;23.194;2023-06-14T12:08:33;91107.28;;;29.23;70.96
5952;BME280;3001;42.622;23.194;2023-06-14T12:11:06;91102.59;;;29.11;70.92
5952;BME280;3001;42.622;23.194;2023-06-14T12:13:34;91102.50;;;29.15;63.74
5952;BME280;3001;42.622;23.194;2023-06-14T12:16:01;91106.19;;;29.21;68.74
5952;BME280;3001;42.622;23.194;2023-06-14T12:18:35;91101.31;;;29.16;66.50
5952;BME280;3001;42.622;23.194;2023-06-14T12:21:03;91094.72;;;28.88;69.18
5952;BME280;3001;42.622;23.194;2023-06-14T12:23:45;91089.88;;;29.15;68.80
5952;BME280;3001;42.622;23.194;2023-06-14T12:26:14;91105.59;;;29.29;67.18
5952;BME280;3001;42.622;23.194;2023-06-14T12:28:42;91099.56;;;29.25;67.61
5952;BME280;3001;42.622;23.194;2023-06-14T12:31:10;91091.97;;;29.56;67.06
5952;BME280;3001;42.622;23.194;2023-06-14T12:33:38;91083.25;;;29.68;67.50
5952;BME280;3001;42.622;23.194;2023-06-14T12:36:06;91079.06;;;29.67;68.29
5952;BME280;3001;42.622;23.194;2023-06-14T12:38:33;91083.53;;;29.86;65.36
5952;BME280;3001;42.622;23.194;2023-06-14T12:41:00;91084.03;;;29.36;65.80
5952;BME280;3001;42.622;23.194;2023-06-14T12:43:28;91075.16;;;29.39;65.79
5952;BME280;3001;42.622;23.194;2023-06-14T12:45:55;91076.16;;;28.97;67.00
5952;BME280;3001;42.622;23.194;2023-06-14T12:48:21;91077.03;;;28.75;67.65
5952;BME280;3001;42.622;23.194;2023-06-14T12:50:48;91061.47;;;28.54;67.32
5952;BME280;3001;42.622;23.194;2023-06-14T12:53:15;91061.16;;;28.13;69.16
5952;BME280;3001;42.622;23.194;2023-06-14T12:55:42;91068.78;;;28.15;69.46
5952;BME280;3001;42.622;23.194;2023-06-14T12:58:09;91061.03;;;28.01;69.59
5952;BME280;3001;42.622;23.194;2023-06-14T13:00:39;91063.97;;;28.06;68.56
5952;BME280;3001;42.622;23.194;2023-06-14T13:03:05;91066.81;;;27.99;68.55
5952;BME280;3001;42.622;23.194;2023-06-14T13:05:32;91063.75;;;27.58;71.00
5952;BME280;3001;42.622;23.194;2023-06-14T13:07:59;91059.91;;;27.59;71.19
5952;BME280;3001;42.622;23.194;2023-06-14T13:10:25;91055.94;;;27.67;70.42
5952;BME280;3001;42.622;23.194;2023-06-14T13:12:52;91061.25;;;27.48;72.01
5952;BME280;3001;42.622;23.194;2023-06-14T13:15:19;91056.63;;;27.52;71.86
5952;BME280;3001;42.622;23.194;2023-06-14T13:17:47;91059.06;;;27.20;72.59
5952;BME280;3001;42.622;23.194;2023-06-14T13:20:14;91056.47;;;27.16;71.86